Terminal Aerodrome Forecast
Issued by NWS

Home | Current Version | Previous Version | Text Only | Print | Product List | Glossary On
Versions: 1 2 3 4 5 6 7 8 9 10 11 12
529
FTUS44 KTSA 292320
TAFFYV
TAF
KFYV 292320Z 3000/3024 00000KT P6SM BKN250
     FM301500 18007KT P6SM SCT040 BKN250 PROB30 3018/3024 5SM -TSRA
      BKN040CB=

USA.gov is the U.S. government's official web portal to all federal, state and local government web resources and services.